createdAt,value
2019-04-11T00:00:38.147Z,73.84
2019-04-11T00:03:11.396Z,73.66
2019-04-11T00:05:45.330Z,74.00
2019-04-11T00:08:19.595Z,73.49
2019-04-11T00:10:51.353Z,74.47
2019-04-11T00:13:25.833Z,74.85
2019-04-11T00:15:57.635Z,74.89
2019-04-11T00:18:30.360Z,74.36
2019-04-11T00:21:02.075Z,75.17
2019-04-11T00:23:34.799Z,75.76
2019-04-11T00:26:08.421Z,76.23
2019-04-11T00:28:40.168Z,76.16
2019-04-11T00:31:13.101Z,76.11
2019-04-11T00:33:46.648Z,76.62
2019-04-11T00:36:20.023Z,76.84
2019-04-11T00:38:53.081Z,76.88
2019-04-11T00:41:26.045Z,76.67
2019-04-11T00:43:58.677Z,76.57
2019-04-11T00:46:32.058Z,76.52
2019-04-11T00:49:06.113Z,76.94
2019-04-11T00:51:38.255Z,76.69
2019-04-11T00:54:11.188Z,76.56
2019-04-11T00:56:45.216Z,77.14
2019-04-11T00:59:18.338Z,77.05
2019-04-11T01:01:51.504Z,77.26
2019-04-11T01:04:25.461Z,77.99
2019-04-11T01:06:58.663Z,77.79
2019-04-11T01:09:30.882Z,77.56
2019-04-11T01:12:04.657Z,78.02
2019-04-11T01:14:38.639Z,78.26
2019-04-11T01:17:12.738Z,78.34
2019-04-11T01:19:46.878Z,78.34
2019-04-11T01:22:20.154Z,78.06
2019-04-11T01:24:53.188Z,78.54
2019-04-11T01:27:27.792Z,78.29
2019-04-11T01:29:59.935Z,78.46
2019-04-11T01:32:33.086Z,78.72
2019-04-11T01:35:06.876Z,78.96
2019-04-11T01:37:40.152Z,79.05
2019-04-11T01:40:13.782Z,78.70
2019-04-11T01:42:45.658Z,79.00
2019-04-11T01:45:19.146Z,79.09
2019-04-11T01:47:53.267Z,78.91
2019-04-11T01:50:27.772Z,79.56
2019-04-11T01:53:00.475Z,79.66
2019-04-11T01:55:34.875Z,80.17
2019-04-11T01:58:06.721Z,80.26
2019-04-11T02:00:42.052Z,79.41
2019-04-11T02:03:23.693Z,79.21
2019-04-11T02:05:55.592Z,78.94
2019-04-11T02:08:29.346Z,79.07
2019-04-11T02:11:01.342Z,79.05
2019-04-11T02:13:34.394Z,79.40
2019-04-11T02:16:06.126Z,79.63
2019-04-11T02:18:39.418Z,79.91
2019-04-11T02:21:13.623Z,81.04
2019-04-11T02:23:55.269Z,80.90
2019-04-11T02:26:29.864Z,80.92
2019-04-11T02:29:03.452Z,81.58
2019-04-11T02:31:36.782Z,81.12
2019-04-11T02:34:08.826Z,81.68
2019-04-11T02:36:43.388Z,81.38
2019-04-11T02:39:19.734Z,81.42
2019-04-11T02:41:52.759Z,81.58
2019-04-11T02:44:41.417Z,81.81
2019-04-11T02:47:05.680Z,81.47
2019-04-11T02:49:33.768Z,81.83
2019-04-11T02:52:07.203Z,81.97
2019-04-11T02:54:41.031Z,82.26
2019-04-11T02:57:16.328Z,82.07
2019-04-11T02:59:51.213Z,82.69
2019-04-11T03:02:24.329Z,82.37
2019-04-11T03:04:58.253Z,82.24
2019-04-11T03:07:31.967Z,82.74
2019-04-11T03:10:09.321Z,82.85
2019-04-11T03:12:40.722Z,82.58
2019-04-11T03:15:28.753Z,82.51
2019-04-11T03:17:50.678Z,82.85
2019-04-11T03:20:31.720Z,82.93
2019-04-11T03:23:04.096Z,83.34
2019-04-11T03:25:32.987Z,83.74
2019-04-11T03:28:05.552Z,83.57
2019-04-11T03:31:01.897Z,83.26
2019-04-11T03:34:01.734Z,83.22
2019-04-11T03:36:38.041Z,83.49
2019-04-11T03:38:46.691Z,84.21
2019-04-11T03:41:15.855Z,83.70
2019-04-11T03:43:45.851Z,83.55
2019-04-11T03:46:25.345Z,84.10
2019-04-11T03:48:55.732Z,84.62
2019-04-11T03:51:21.031Z,84.54
2019-04-11T03:53:53.687Z,84.87
2019-04-11T03:56:28.521Z,85.17
2019-04-11T03:59:01.429Z,84.44
2019-04-11T04:01:34.981Z,84.69
2019-04-11T04:04:11.122Z,84.74
2019-04-11T04:06:43.595Z,84.96
2019-04-11T04:09:17.071Z,84.99
2019-04-11T04:11:51.334Z,84.86
2019-04-11T04:14:26.369Z,84.88
2019-04-11T04:17:04.243Z,84.95
2019-04-11T04:19:37.690Z,85.21
2019-04-11T04:22:20.650Z,84.76
2019-04-11T04:24:55.773Z,84.61
2019-04-11T04:27:28.129Z,84.69
2019-04-11T04:30:02.370Z,84.78
2019-04-11T04:32:36.276Z,84.82
2019-04-11T04:35:11.508Z,84.58
2019-04-11T04:37:43.354Z,84.94
2019-04-11T04:40:34.158Z,84.53
2019-04-11T04:42:55.928Z,84.48
2019-04-11T04:45:27.850Z,84.28
2019-04-11T04:48:05.611Z,84.38
2019-04-11T04:50:36.678Z,83.94
2019-04-11T04:53:10.221Z,83.99
2019-04-11T04:55:45.649Z,83.39
2019-04-11T04:58:18.048Z,83.14
2019-04-11T05:00:53.838Z,82.94
2019-04-11T05:03:26.913Z,82.37
2019-04-11T05:06:01.219Z,81.86
2019-04-11T05:08:34.767Z,81.58
2019-04-11T05:11:07.901Z,81.10
2019-04-11T05:13:44.482Z,77.23
2019-04-11T05:16:17.884Z,64.20
2019-04-11T05:18:50.793Z,57.86
2019-04-11T05:21:29.620Z,52.81
2019-04-11T05:24:02.648Z,50.24
2019-04-11T05:26:35.933Z,47.17
2019-04-11T05:29:09.027Z,44.43
2019-04-11T05:31:41.158Z,41.56
2019-04-11T05:34:14.008Z,39.65
2019-04-11T05:36:47.252Z,38.17
2019-04-11T05:39:20.284Z,36.07
2019-04-11T05:41:54.417Z,36.45
2019-04-11T05:44:26.287Z,35.67
2019-04-11T05:47:01.913Z,34.32
2019-04-11T05:49:37.271Z,34.44
2019-04-11T05:52:10.534Z,33.52
2019-04-11T05:54:54.330Z,34.06
2019-04-11T05:57:33.041Z,33.89
2019-04-11T06:00:01.296Z,34.09
2019-04-11T06:02:39.540Z,35.01
2019-04-11T06:05:23.860Z,33.31
2019-04-11T06:08:00.454Z,35.06
2019-04-11T06:10:43.537Z,36.81
2019-04-11T06:13:16.648Z,36.27
2019-04-11T06:15:51.384Z,36.21
2019-04-11T06:18:32.041Z,35.88
2019-04-11T06:21:07.425Z,36.47
2019-04-11T06:23:43.960Z,38.22
2019-04-11T06:26:21.306Z,38.97
2019-04-11T06:28:56.997Z,37.32
2019-04-11T06:31:34.633Z,36.91
2019-04-11T06:34:09.237Z,37.04
2019-04-11T06:36:43.391Z,37.65
2019-04-11T06:39:33.566Z,38.74
2019-04-11T06:42:10.736Z,38.10
2019-04-11T06:44:43.820Z,39.54
2019-04-11T06:47:21.253Z,36.95
2019-04-11T06:49:58.611Z,38.65
2019-04-11T06:52:36.990Z,39.11
2019-04-11T06:55:18.281Z,38.36
2019-04-11T06:58:02.917Z,38.57
2019-04-11T07:00:39.102Z,39.99
2019-04-11T07:03:20.638Z,39.53
2019-04-11T07:05:51.058Z,39.19
2019-04-11T07:08:27.317Z,38.38
2019-04-11T07:11:03.275Z,37.61
2019-04-11T07:13:37.852Z,36.45
2019-04-11T07:16:11.267Z,37.20
2019-04-11T07:18:57.051Z,36.52
2019-04-11T07:21:33.072Z,37.90
2019-04-11T07:24:25.397Z,38.31
2019-04-11T07:27:00.946Z,38.29
2019-04-11T07:29:48.558Z,38.54
2019-04-11T07:32:20.403Z,37.80
2019-04-11T07:34:56.638Z,37.55
2019-04-11T07:37:32.680Z,36.46
2019-04-11T07:40:15.579Z,37.33
2019-04-11T07:42:53.151Z,36.48
2019-04-11T07:45:37.694Z,36.82
2019-04-11T07:48:27.278Z,36.20
2019-04-11T07:51:03.250Z,37.20
2019-04-11T07:53:37.289Z,37.82
2019-04-11T07:56:09.871Z,38.23
2019-04-11T07:58:46.507Z,38.75
2019-04-11T08:01:21.065Z,37.73
2019-04-11T08:04:12.714Z,37.21
2019-04-11T08:07:04.360Z,37.07
2019-04-11T08:09:50.623Z,35.41
2019-04-11T08:12:21.718Z,35.28
2019-04-11T08:15:13.349Z,36.40
2019-04-11T08:17:46.528Z,37.76
2019-04-11T08:20:37.566Z,37.41
2019-04-11T08:26:42.247Z,37.52
2019-04-11T08:29:16.065Z,37.35
2019-04-11T08:32:07.318Z,36.56
2019-04-11T08:35:17.692Z,37.37
2019-04-11T08:37:58.030Z,36.91
2019-04-11T08:40:33.611Z,36.25
2019-04-11T08:43:13.131Z,37.01
2019-04-11T08:46:05.314Z,35.58
2019-04-11T08:48:57.286Z,35.34
2019-04-11T08:51:33.574Z,37.36
2019-04-11T08:54:15.501Z,36.34
2019-04-11T08:56:59.161Z,38.47
2019-04-11T08:59:37.867Z,37.88
2019-04-11T09:02:11.231Z,38.69
2019-04-11T09:05:08.484Z,39.57
2019-04-11T09:07:41.650Z,40.78
2019-04-11T09:10:33.768Z,40.05
2019-04-11T09:13:13.266Z,39.76
2019-04-11T09:16:10.342Z,39.57
2019-04-11T09:18:44.085Z,38.45
2019-04-11T09:21:34.165Z,40.03
2019-04-11T09:24:08.319Z,39.76
2019-04-11T09:26:52.241Z,40.49
2019-04-11T09:29:40.125Z,40.88
2019-04-11T09:32:14.022Z,40.32
2019-04-11T09:35:04.183Z,39.19
2019-04-11T09:37:37.871Z,39.56
2019-04-11T09:40:28.329Z,38.67
2019-04-11T09:43:07.164Z,38.07
2019-04-11T09:45:59.756Z,38.26
2019-04-11T09:48:50.405Z,37.60
2019-04-11T09:51:30.298Z,37.19
2019-04-11T09:54:10.126Z,35.67
2019-04-11T09:57:04.360Z,35.16
2019-04-11T09:59:56.366Z,35.72
2019-04-11T10:02:41.941Z,37.09
2019-04-11T10:05:16.555Z,37.58
2019-04-11T10:07:50.644Z,38.77
2019-04-11T10:10:29.150Z,38.43
2019-04-11T10:13:16.313Z,37.51
2019-04-11T10:15:53.813Z,37.78
2019-04-11T10:18:37.290Z,37.87
2019-04-11T10:21:06.778Z,37.82
2019-04-11T10:23:58.870Z,39.00
2019-04-11T10:26:34.183Z,38.40
2019-04-11T10:29:27.488Z,38.99
2019-04-11T10:32:01.163Z,37.69
2019-04-11T10:34:38.577Z,37.65
2019-04-11T10:37:12.003Z,37.01
2019-04-11T10:39:51.328Z,36.71
2019-04-11T10:42:24.846Z,37.89
2019-04-11T10:45:08.521Z,37.97
2019-04-11T10:47:41.335Z,37.17
2019-04-11T10:50:17.637Z,37.30
2019-04-11T10:52:52.995Z,36.26
2019-04-11T10:55:27.746Z,36.99
2019-04-11T10:58:08.818Z,37.61
2019-04-11T11:00:49.761Z,37.62
2019-04-11T11:03:24.401Z,37.31
2019-04-11T11:05:59.652Z,38.61
2019-04-11T11:08:39.685Z,37.60
2019-04-11T11:11:15.902Z,37.56
2019-04-11T11:13:50.091Z,37.75
2019-04-11T11:16:24.779Z,37.42
2019-04-11T11:19:31.186Z,36.84
2019-04-11T11:21:37.069Z,36.98
2019-04-11T11:24:28.151Z,38.60
2019-04-11T11:27:03.997Z,36.99
2019-04-11T11:29:37.127Z,37.19
2019-04-11T11:32:11.320Z,37.48
2019-04-11T11:34:52.957Z,37.99
2019-04-11T11:37:35.946Z,38.23
2019-04-11T11:40:14.675Z,38.03
2019-04-11T11:42:48.426Z,38.67
2019-04-11T11:45:33.211Z,38.60
2019-04-11T11:48:12.826Z,37.22
2019-04-11T11:50:40.525Z,37.85
2019-04-11T11:53:18.487Z,37.86
2019-04-11T11:55:51.657Z,37.38
2019-04-11T11:58:25.783Z,38.05
2019-04-11T12:01:03.673Z,39.01
2019-04-11T12:03:46.994Z,38.32
2019-04-11T12:06:22.262Z,38.24
2019-04-11T12:08:56.082Z,38.57
2019-04-11T12:11:28.400Z,38.44
2019-04-11T12:14:09.704Z,38.47
2019-04-11T12:16:42.430Z,38.52
2019-04-11T12:19:21.712Z,38.65
2019-04-11T12:21:55.970Z,38.50
2019-04-11T12:24:34.750Z,39.07
2019-04-11T12:27:13.220Z,37.74
2019-04-11T12:29:50.517Z,38.47
2019-04-11T12:32:28.457Z,37.18
2019-04-11T12:35:08.234Z,37.45
2019-04-11T12:37:51.826Z,37.79
2019-04-11T12:40:42.621Z,37.39
2019-04-11T12:43:15.643Z,38.05
2019-04-11T12:45:54.180Z,38.37
2019-04-11T12:48:28.671Z,38.98
2019-04-11T12:51:19.151Z,39.15
2019-04-11T12:53:50.810Z,39.00
2019-04-11T12:56:26.902Z,39.44
2019-04-11T12:58:59.848Z,39.49
2019-04-11T13:01:34.447Z,39.16
2019-04-11T13:04:14.867Z,39.21
2019-04-11T13:06:49.411Z,39.28
2019-04-11T13:09:23.871Z,39.29
2019-04-11T13:11:57.149Z,38.55
2019-04-11T13:14:32.771Z,38.70
2019-04-11T13:17:22.362Z,39.53
2019-04-11T13:20:13.231Z,39.76
2019-04-11T13:22:44.960Z,39.02
2019-04-11T13:25:35.613Z,39.54
2019-04-11T13:28:08.895Z,39.60
2019-04-11T13:30:40.306Z,39.81
2019-04-11T13:33:13.653Z,39.87
2019-04-11T13:36:04.323Z,39.50
2019-04-11T13:38:38.331Z,39.36
2019-04-11T13:41:29.303Z,39.58
2019-04-11T13:44:05.504Z,39.08
2019-04-11T13:46:38.797Z,38.67
2019-04-11T13:49:17.954Z,38.85
2019-04-11T13:51:51.267Z,38.85
2019-04-11T13:54:40.717Z,38.73
2019-04-11T13:57:12.234Z,38.68
2019-04-11T14:00:02.770Z,39.03
2019-04-11T14:02:38.186Z,39.01
2019-04-11T14:05:13.914Z,38.88
2019-04-11T14:07:49.438Z,39.17
2019-04-11T14:10:23.297Z,39.13
2019-04-11T14:12:56.967Z,39.18
2019-04-11T14:15:31.128Z,38.92
2019-04-11T14:18:21.964Z,39.21
2019-04-11T14:20:59.076Z,38.84
2019-04-11T14:23:49.166Z,39.08
2019-04-11T14:26:32.546Z,39.78
2019-04-11T14:29:06.710Z,39.28
2019-04-11T14:31:47.947Z,38.94
2019-04-11T14:34:23.537Z,38.90
2019-04-11T14:37:00.385Z,38.84
2019-04-11T14:39:42.966Z,38.97
2019-04-11T14:42:19.900Z,38.80
2019-04-11T14:44:55.393Z,38.61
2019-04-11T14:47:39.179Z,39.19
2019-04-11T14:50:13.997Z,39.85
2019-04-11T14:53:01.285Z,40.25
2019-04-11T14:55:36.711Z,40.14
2019-04-11T14:58:25.479Z,39.26
2019-04-11T15:00:57.244Z,39.37
2019-04-11T15:03:31.404Z,40.24
2019-04-11T15:06:04.761Z,39.96
2019-04-11T15:08:54.161Z,40.06
2019-04-11T15:11:47.132Z,40.47
2019-04-11T15:14:30.483Z,40.48
2019-04-11T15:17:15.033Z,40.33
2019-04-11T15:19:56.774Z,40.23
2019-04-11T15:22:52.199Z,40.69
2019-04-11T15:25:27.096Z,40.49
2019-04-11T15:28:19.152Z,40.70
2019-04-11T15:31:00.850Z,40.97
2019-04-11T15:33:48.423Z,41.30
2019-04-11T15:36:28.638Z,41.50
2019-04-11T15:39:18.959Z,41.77
2019-04-11T15:41:59.253Z,42.57
2019-04-11T15:44:49.265Z,42.25
2019-04-11T15:47:27.684Z,42.22
2019-04-11T15:50:03.463Z,43.06
2019-04-11T15:52:37.965Z,42.82
2019-04-11T15:55:13.113Z,43.17
2019-04-11T15:57:49.444Z,43.32
2019-04-11T16:00:30.550Z,43.53
2019-04-11T16:03:07.345Z,43.88
2019-04-11T16:06:01.588Z,44.22
2019-04-11T16:08:43.458Z,44.30
2019-04-11T16:11:39.233Z,44.00
2019-04-11T16:14:16.128Z,43.99
2019-04-11T16:16:55.221Z,44.74
2019-04-11T16:19:48.866Z,44.56
2019-04-11T16:22:25.455Z,45.13
2019-04-11T16:25:06.972Z,45.63
2019-04-11T16:27:57.556Z,45.98
2019-04-11T16:30:31.004Z,45.57
2019-04-11T16:33:06.785Z,45.87
2019-04-11T16:35:57.339Z,45.98
2019-04-11T16:38:34.399Z,46.43
2019-04-11T16:41:07.737Z,46.36
2019-04-11T16:43:43.783Z,46.52
2019-04-11T16:46:35.416Z,46.53
2019-04-11T16:49:11.681Z,47.29
2019-04-11T16:51:48.534Z,47.48
2019-04-11T16:54:21.212Z,48.13
2019-04-11T16:57:01.374Z,47.92
2019-04-11T16:59:35.245Z,48.27
2019-04-11T17:02:11.189Z,48.79
2019-04-11T17:04:46.234Z,48.97
2019-04-11T17:07:39.034Z,49.20
2019-04-11T17:10:17.576Z,49.80
2019-04-11T17:12:56.869Z,49.67
2019-04-11T17:15:30.633Z,49.73
2019-04-11T17:18:03.163Z,49.76
2019-04-11T17:20:39.840Z,50.10
2019-04-11T17:23:12.774Z,50.52
2019-04-11T17:25:48.264Z,50.24
2019-04-11T17:28:22.625Z,50.64
2019-04-11T17:30:56.967Z,50.64
2019-04-11T17:33:30.995Z,50.76
2019-04-11T17:36:05.072Z,50.97
2019-04-11T17:38:37.737Z,51.22
2019-04-11T17:41:11.987Z,51.48
2019-04-11T17:43:46.726Z,51.55
2019-04-11T17:46:26.727Z,51.61
2019-04-11T17:48:59.278Z,51.63
2019-04-11T17:51:37.550Z,51.88
2019-04-11T17:54:13.526Z,51.41
2019-04-11T17:56:47.569Z,51.96
2019-04-11T17:59:23.165Z,51.56
2019-04-11T18:01:57.230Z,51.82
2019-04-11T18:04:31.937Z,52.01
2019-04-11T18:07:04.957Z,52.17
2019-04-11T18:09:39.271Z,52.26
2019-04-11T18:12:13.167Z,52.23
2019-04-11T18:14:46.431Z,51.79
2019-04-11T18:17:20.097Z,52.06
2019-04-11T18:20:04.547Z,52.32
2019-04-11T18:22:39.200Z,52.05
2019-04-11T18:25:12.399Z,52.05
2019-04-11T18:27:47.354Z,52.11
2019-04-11T18:30:23.303Z,52.14
2019-04-11T18:32:57.648Z,52.36
2019-04-11T18:35:37.217Z,52.04
2019-04-11T18:38:10.326Z,51.94
2019-04-11T18:40:42.379Z,51.99
2019-04-11T18:43:16.239Z,52.31
2019-04-11T18:45:49.718Z,52.03
2019-04-11T18:48:27.089Z,52.07
2019-04-11T18:51:01.734Z,51.96
2019-04-11T18:53:38.299Z,51.94
2019-04-11T18:56:14.515Z,52.23
2019-04-11T18:58:48.892Z,52.08
2019-04-11T19:01:25.243Z,52.02
2019-04-11T19:03:57.747Z,52.32
2019-04-11T19:06:32.600Z,52.14
2019-04-11T19:09:05.866Z,51.77
2019-04-11T19:11:39.054Z,51.80
2019-04-11T19:14:11.426Z,52.03
2019-04-11T19:16:43.804Z,52.15
2019-04-11T19:19:18.560Z,52.28
2019-04-11T19:21:54.096Z,52.01
2019-04-11T19:24:35.338Z,52.07
2019-04-11T19:27:09.187Z,52.13
2019-04-11T19:29:41.976Z,52.30
2019-04-11T19:32:18.075Z,52.59
2019-04-11T19:34:51.414Z,53.01
2019-04-11T19:37:23.966Z,52.76
2019-04-11T19:39:57.482Z,52.54
2019-04-11T19:42:30.482Z,52.64
2019-04-11T19:45:08.558Z,53.01
2019-04-11T19:47:41.766Z,53.15
2019-04-11T19:50:16.517Z,53.46
2019-04-11T19:52:50.232Z,53.44
2019-04-11T19:55:30.160Z,53.26
2019-04-11T19:58:02.583Z,53.23
2019-04-11T20:00:36.227Z,53.51
2019-04-11T20:03:10.349Z,53.40
2019-04-11T20:05:46.012Z,53.44
2019-04-11T20:08:20.147Z,53.62
2019-04-11T20:10:55.293Z,53.81
2019-04-11T20:13:31.950Z,54.04
2019-04-11T20:16:03.918Z,54.06
2019-04-11T20:18:37.724Z,54.10
2019-04-11T20:21:10.394Z,53.81
2019-04-11T20:23:44.683Z,54.18
2019-04-11T20:26:20.102Z,53.91
2019-04-11T20:28:56.104Z,54.01
2019-04-11T20:31:28.597Z,54.21
2019-04-11T20:34:01.695Z,54.44
2019-04-11T20:36:36.218Z,54.26
2019-04-11T20:39:15.303Z,54.34
2019-04-11T20:41:46.683Z,54.48
2019-04-11T20:44:27.221Z,54.28
2019-04-11T20:47:00.392Z,54.71
2019-04-11T20:49:35.457Z,54.57
2019-04-11T20:52:18.398Z,54.54
2019-04-11T20:54:51.944Z,54.54
2019-04-11T20:57:26.317Z,54.72
2019-04-11T20:59:58.523Z,54.95
2019-04-11T21:02:33.961Z,55.13
2019-04-11T21:05:07.001Z,55.18
2019-04-11T21:07:40.645Z,55.20
2019-04-11T21:10:12.694Z,55.39
2019-04-11T21:12:46.850Z,55.61
2019-04-11T21:15:19.912Z,55.59
2019-04-11T21:17:53.637Z,55.76
2019-04-11T21:20:25.191Z,56.09
2019-04-11T21:22:58.223Z,56.28
2019-04-11T21:25:29.939Z,56.64
2019-04-11T21:28:04.001Z,57.04
2019-04-11T21:30:35.863Z,57.33
2019-04-11T21:33:11.787Z,57.37
2019-04-11T21:35:43.871Z,57.38
2019-04-11T21:38:15.613Z,57.72
2019-04-11T21:40:48.888Z,57.64
2019-04-11T21:43:23.312Z,57.79
2019-04-11T21:45:57.399Z,57.85
2019-04-11T21:48:35.594Z,57.80
2019-04-11T21:51:05.979Z,58.21
2019-04-11T21:53:37.887Z,58.12
2019-04-11T21:56:09.763Z,58.23
2019-04-11T21:58:42.749Z,58.03
2019-04-11T22:01:17.867Z,58.27
2019-04-11T22:03:55.778Z,58.19
2019-04-11T22:06:30.469Z,58.29
2019-04-11T22:09:12.118Z,58.30
2019-04-11T22:11:45.176Z,58.50
2019-04-11T22:14:20.546Z,58.75
2019-04-11T22:16:56.062Z,58.73
2019-04-11T22:19:29.366Z,58.50
2019-04-11T22:22:02.340Z,58.74
2019-04-11T22:24:35.020Z,58.73
2019-04-11T22:27:08.005Z,58.79
2019-04-11T22:29:41.977Z,58.77
2019-04-11T22:32:18.069Z,59.07
2019-04-11T22:34:51.886Z,58.98
2019-04-11T22:37:27.714Z,58.87
2019-04-11T22:40:02.774Z,58.96
2019-04-11T22:42:34.884Z,59.07
2019-04-11T22:45:09.138Z,59.00
2019-04-11T22:47:40.806Z,58.86
2019-04-11T22:50:16.086Z,58.76
2019-04-11T22:52:48.957Z,58.63
2019-04-11T22:55:21.933Z,58.81
2019-04-11T22:57:53.758Z,58.81
2019-04-11T23:00:25.697Z,58.74
2019-04-11T23:03:04.876Z,58.42
2019-04-11T23:05:37.402Z,58.51
2019-04-11T23:08:09.018Z,58.39
2019-04-11T23:10:46.850Z,58.39
2019-04-11T23:13:22.980Z,58.02
2019-04-11T23:15:55.981Z,58.29
2019-04-11T23:18:28.953Z,57.71
2019-04-11T23:21:02.002Z,57.52
2019-04-11T23:23:33.743Z,57.33
2019-04-11T23:26:07.669Z,57.39
2019-04-11T23:28:40.317Z,56.54
2019-04-11T23:31:13.323Z,56.13
2019-04-11T23:33:46.308Z,56.26
2019-04-11T23:36:21.166Z,56.02
2019-04-11T23:38:53.843Z,56.37
2019-04-11T23:41:26.813Z,55.63
2019-04-11T23:43:59.769Z,54.46
2019-04-11T23:46:32.795Z,54.71
2019-04-11T23:49:05.763Z,54.55
2019-04-11T23:51:38.762Z,54.84
2019-04-11T23:54:22.580Z,54.11
2019-04-11T23:56:47.828Z,54.16
2019-04-11T23:59:20.467Z,53.95
